sensor_id;sensor_type;location;lat;lon;timestamp;P1;durP1;ratioP1;P2;durP2;ratioP2
21786;SDS011;11055;50.870;4.316;2023-01-05T00:01:46;23.67;;;4.88;;
21786;SDS011;11055;50.870;4.316;2023-01-05T00:04:12;33.13;;;5.63;;
21786;SDS011;11055;50.870;4.316;2023-01-05T00:06:38;21.95;;;4.15;;
21786;SDS011;11055;50.870;4.316;2023-01-05T00:09:04;29.73;;;5.35;;
21786;SDS011;11055;50.870;4.316;2023-01-05T00:11:31;28.17;;;4.65;;
21786;SDS011;11055;50.870;4.316;2023-01-05T00:14:16;31.20;;;4.93;;
21786;SDS011;11055;50.870;4.316;2023-01-05T00:17:03;28.67;;;5.03;;
21786;SDS011;11055;50.870;4.316;2023-01-05T00:19:48;24.98;;;5.90;;
21786;SDS011;11055;50.870;4.316;2023-01-05T00:22:33;23.98;;;5.65;;
21786;SDS011;11055;50.870;4.316;2023-01-05T00:25:07;26.50;;;5.40;;
21786;SDS011;11055;50.870;4.316;2023-01-05T00:27:35;25.90;;;4.80;;
21786;SDS011;11055;50.870;4.316;2023-01-05T00:30:01;28.20;;;4.78;;
21786;SDS011;11055;50.870;4.316;2023-01-05T00:32:27;31.23;;;4.90;;
21786;SDS011;11055;50.870;4.316;2023-01-05T00:34:53;24.67;;;5.05;;
21786;SDS011;11055;50.870;4.316;2023-01-05T00:37:21;32.92;;;5.00;;
21786;SDS011;11055;50.870;4.316;2023-01-05T00:39:47;26.13;;;5.63;;
21786;SDS011;11055;50.870;4.316;2023-01-05T00:42:13;25.15;;;4.80;;
21786;SDS011;11055;50.870;4.316;2023-01-05T00:44:39;27.35;;;5.25;;
21786;SDS011;11055;50.870;4.316;2023-01-05T00:47:05;35.78;;;5.70;;
21786;SDS011;11055;50.870;4.316;2023-01-05T00:49:30;23.38;;;5.20;;
21786;SDS011;11055;50.870;4.316;2023-01-05T00:51:56;34.55;;;5.32;;
21786;SDS011;11055;50.870;4.316;2023-01-05T00:54:22;32.33;;;5.60;;
21786;SDS011;11055;50.870;4.316;2023-01-05T00:56:47;37.88;;;5.95;;
21786;SDS011;11055;50.870;4.316;2023-01-05T00:59:13;25.58;;;4.53;;
21786;SDS011;11055;50.870;4.316;2023-01-05T01:01:40;26.90;;;4.45;;
21786;SDS011;11055;50.870;4.316;2023-01-05T01:04:06;29.77;;;5.63;;
21786;SDS011;11055;50.870;4.316;2023-01-05T01:06:31;32.30;;;5.07;;
21786;SDS011;11055;50.870;4.316;2023-01-05T01:08:57;29.13;;;5.22;;
21786;SDS011;11055;50.870;4.316;2023-01-05T01:11:23;27.05;;;5.00;;
21786;SDS011;11055;50.870;4.316;2023-01-05T01:13:49;29.92;;;5.35;;
21786;SDS011;11055;50.870;4.316;2023-01-05T01:16:14;32.85;;;5.15;;
21786;SDS011;11055;50.870;4.316;2023-01-05T01:18:41;22.80;;;4.30;;
21786;SDS011;11055;50.870;4.316;2023-01-05T01:21:07;28.35;;;4.78;;
21786;SDS011;11055;50.870;4.316;2023-01-05T01:23:33;28.77;;;4.50;;
21786;SDS011;11055;50.870;4.316;2023-01-05T01:26:05;29.08;;;4.35;;
21786;SDS011;11055;50.870;4.316;2023-01-05T01:28:35;31.13;;;6.03;;
21786;SDS011;11055;50.870;4.316;2023-01-05T01:31:01;33.50;;;5.68;;
21786;SDS011;11055;50.870;4.316;2023-01-05T01:33:27;26.95;;;5.05;;
21786;SDS011;11055;50.870;4.316;2023-01-05T01:35:53;33.50;;;5.45;;
21786;SDS011;11055;50.870;4.316;2023-01-05T01:38:19;27.75;;;4.28;;
21786;SDS011;11055;50.870;4.316;2023-01-05T01:40:46;27.20;;;5.20;;
21786;SDS011;11055;50.870;4.316;2023-01-05T01:43:15;26.00;;;4.90;;
21786;SDS011;11055;50.870;4.316;2023-01-05T01:46:03;29.52;;;4.72;;
21786;SDS011;11055;50.870;4.316;2023-01-05T01:48:29;30.30;;;5.00;;
21786;SDS011;11055;50.870;4.316;2023-01-05T01:50:56;27.45;;;4.57;;
21786;SDS011;11055;50.870;4.316;2023-01-05T01:53:26;32.10;;;5.38;;
21786;SDS011;11055;50.870;4.316;2023-01-05T01:55:54;32.75;;;5.00;;
21786;SDS011;11055;50.870;4.316;2023-01-05T01:58:24;29.02;;;5.47;;
21786;SDS011;11055;50.870;4.316;2023-01-05T02:00:51;24.23;;;4.25;;
21786;SDS011;11055;50.870;4.316;2023-01-05T02:03:18;24.00;;;4.85;;
21786;SDS011;11055;50.870;4.316;2023-01-05T02:05:43;23.15;;;4.40;;
21786;SDS011;11055;50.870;4.316;2023-01-05T02:08:10;33.53;;;5.18;;
21786;SDS011;11055;50.870;4.316;2023-01-05T02:13:17;29.95;;;5.75;;
21786;SDS011;11055;50.870;4.316;2023-01-05T02:21:18;27.05;;;4.50;;
21786;SDS011;11055;50.870;4.316;2023-01-05T02:32:12;26.55;;;4.80;;
21786;SDS011;11055;50.870;4.316;2023-01-05T02:37:40;28.10;;;6.05;;
21786;SDS011;11055;50.870;4.316;2023-01-05T02:40:16;30.65;;;5.20;;
21786;SDS011;11055;50.870;4.316;2023-01-05T02:42:48;22.80;;;4.35;;
21786;SDS011;11055;50.870;4.316;2023-01-05T02:45:19;26.38;;;5.15;;
21786;SDS011;11055;50.870;4.316;2023-01-05T02:47:46;25.80;;;5.28;;
21786;SDS011;11055;50.870;4.316;2023-01-05T02:50:31;28.10;;;5.07;;
21786;SDS011;11055;50.870;4.316;2023-01-05T02:55:40;38.05;;;5.93;;
21786;SDS011;11055;50.870;4.316;2023-01-05T02:58:12;33.55;;;5.68;;
21786;SDS011;11055;50.870;4.316;2023-01-05T03:00:49;32.28;;;5.40;;
21786;SDS011;11055;50.870;4.316;2023-01-05T03:06:02;35.08;;;5.50;;
21786;SDS011;11055;50.870;4.316;2023-01-05T03:08:29;31.33;;;5.28;;
21786;SDS011;11055;50.870;4.316;2023-01-05T03:11:01;30.25;;;5.55;;
21786;SDS011;11055;50.870;4.316;2023-01-05T03:13:47;23.58;;;4.50;;
21786;SDS011;11055;50.870;4.316;2023-01-05T03:16:42;30.13;;;5.22;;
21786;SDS011;11055;50.870;4.316;2023-01-05T03:19:10;29.33;;;5.93;;
21786;SDS011;11055;50.870;4.316;2023-01-05T03:21:56;30.35;;;5.03;;
21786;SDS011;11055;50.870;4.316;2023-01-05T03:24:42;35.97;;;5.55;;
21786;SDS011;11055;50.870;4.316;2023-01-05T03:27:26;33.80;;;5.68;;
21786;SDS011;11055;50.870;4.316;2023-01-05T03:30:11;27.88;;;5.95;;
21786;SDS011;11055;50.870;4.316;2023-01-05T03:33:04;29.65;;;5.18;;
21786;SDS011;11055;50.870;4.316;2023-01-05T03:35:56;29.20;;;5.80;;
21786;SDS011;11055;50.870;4.316;2023-01-05T03:38:35;26.92;;;5.68;;
21786;SDS011;11055;50.870;4.316;2023-01-05T03:41:09;28.88;;;5.97;;
21786;SDS011;11055;50.870;4.316;2023-01-05T03:43:38;32.85;;;5.20;;
21786;SDS011;11055;50.870;4.316;2023-01-05T03:46:11;25.27;;;5.50;;
21786;SDS011;11055;50.870;4.316;2023-01-05T03:48:40;24.73;;;4.65;;
21786;SDS011;11055;50.870;4.316;2023-01-05T03:51:06;31.88;;;5.03;;
21786;SDS011;11055;50.870;4.316;2023-01-05T03:53:32;26.80;;;5.00;;
21786;SDS011;11055;50.870;4.316;2023-01-05T03:55:58;33.45;;;4.90;;
21786;SDS011;11055;50.870;4.316;2023-01-05T03:58:24;28.42;;;5.38;;
21786;SDS011;11055;50.870;4.316;2023-01-05T04:00:49;29.80;;;5.63;;
21786;SDS011;11055;50.870;4.316;2023-01-05T04:03:15;29.77;;;4.85;;
21786;SDS011;11055;50.870;4.316;2023-01-05T04:05:41;32.70;;;6.32;;
21786;SDS011;11055;50.870;4.316;2023-01-05T04:08:06;30.27;;;4.75;;
21786;SDS011;11055;50.870;4.316;2023-01-05T04:10:32;36.25;;;5.97;;
21786;SDS011;11055;50.870;4.316;2023-01-05T04:12:58;33.03;;;5.78;;
21786;SDS011;11055;50.870;4.316;2023-01-05T04:15:23;31.13;;;5.53;;
21786;SDS011;11055;50.870;4.316;2023-01-05T04:17:49;29.92;;;5.35;;
21786;SDS011;11055;50.870;4.316;2023-01-05T04:20:15;27.55;;;5.00;;
21786;SDS011;11055;50.870;4.316;2023-01-05T04:22:41;31.65;;;5.90;;
21786;SDS011;11055;50.870;4.316;2023-01-05T04:25:06;26.23;;;5.22;;
21786;SDS011;11055;50.870;4.316;2023-01-05T04:27:32;32.40;;;5.72;;
21786;SDS011;11055;50.870;4.316;2023-01-05T04:29:58;30.98;;;5.03;;
21786;SDS011;11055;50.870;4.316;2023-01-05T04:32:24;32.78;;;5.90;;
21786;SDS011;11055;50.870;4.316;2023-01-05T04:34:50;31.08;;;5.35;;
21786;SDS011;11055;50.870;4.316;2023-01-05T04:37:15;37.92;;;6.03;;
21786;SDS011;11055;50.870;4.316;2023-01-05T04:39:41;36.20;;;6.15;;
21786;SDS011;11055;50.870;4.316;2023-01-05T04:42:07;31.10;;;5.38;;
21786;SDS011;11055;50.870;4.316;2023-01-05T04:44:32;32.00;;;4.97;;
21786;SDS011;11055;50.870;4.316;2023-01-05T04:46:58;25.23;;;4.78;;
21786;SDS011;11055;50.870;4.316;2023-01-05T04:49:24;34.13;;;5.25;;
21786;SDS011;11055;50.870;4.316;2023-01-05T04:51:49;33.35;;;5.30;;
21786;SDS011;11055;50.870;4.316;2023-01-05T04:54:15;31.52;;;4.85;;
21786;SDS011;11055;50.870;4.316;2023-01-05T04:56:41;29.98;;;6.13;;
21786;SDS011;11055;50.870;4.316;2023-01-05T04:59:07;34.65;;;6.30;;
21786;SDS011;11055;50.870;4.316;2023-01-05T05:01:32;25.35;;;5.50;;
21786;SDS011;11055;50.870;4.316;2023-01-05T05:03:58;25.90;;;5.38;;
21786;SDS011;11055;50.870;4.316;2023-01-05T05:06:24;32.72;;;5.82;;
21786;SDS011;11055;50.870;4.316;2023-01-05T05:08:50;32.13;;;5.72;;
21786;SDS011;11055;50.870;4.316;2023-01-05T05:11:15;31.60;;;5.63;;
21786;SDS011;11055;50.870;4.316;2023-01-05T05:13:41;37.65;;;5.82;;
21786;SDS011;11055;50.870;4.316;2023-01-05T05:16:07;33.35;;;6.03;;
21786;SDS011;11055;50.870;4.316;2023-01-05T05:18:33;30.73;;;6.40;;
21786;SDS011;11055;50.870;4.316;2023-01-05T05:20:59;29.73;;;5.38;;
21786;SDS011;11055;50.870;4.316;2023-01-05T05:23:27;33.00;;;6.75;;
21786;SDS011;11055;50.870;4.316;2023-01-05T05:25:53;29.77;;;5.85;;
21786;SDS011;11055;50.870;4.316;2023-01-05T05:28:19;29.13;;;5.75;;
21786;SDS011;11055;50.870;4.316;2023-01-05T05:30:47;38.00;;;6.10;;
21786;SDS011;11055;50.870;4.316;2023-01-05T05:33:13;38.80;;;6.85;;
21786;SDS011;11055;50.870;4.316;2023-01-05T05:35:39;31.52;;;5.43;;
21786;SDS011;11055;50.870;4.316;2023-01-05T05:38:05;32.67;;;5.20;;
21786;SDS011;11055;50.870;4.316;2023-01-05T05:40:31;30.33;;;5.40;;
21786;SDS011;11055;50.870;4.316;2023-01-05T05:42:57;30.65;;;6.38;;
21786;SDS011;11055;50.870;4.316;2023-01-05T05:45:22;30.38;;;5.85;;
21786;SDS011;11055;50.870;4.316;2023-01-05T05:47:48;33.13;;;5.15;;
21786;SDS011;11055;50.870;4.316;2023-01-05T05:50:14;31.98;;;5.78;;
21786;SDS011;11055;50.870;4.316;2023-01-05T05:52:39;36.95;;;6.47;;
21786;SDS011;11055;50.870;4.316;2023-01-05T05:55:05;27.15;;;5.88;;
21786;SDS011;11055;50.870;4.316;2023-01-05T05:57:31;35.95;;;7.50;;
21786;SDS011;11055;50.870;4.316;2023-01-05T05:59:57;27.45;;;5.28;;
21786;SDS011;11055;50.870;4.316;2023-01-05T06:02:23;32.22;;;6.07;;
21786;SDS011;11055;50.870;4.316;2023-01-05T06:04:48;35.33;;;6.20;;
21786;SDS011;11055;50.870;4.316;2023-01-05T06:07:14;38.05;;;6.28;;
21786;SDS011;11055;50.870;4.316;2023-01-05T06:09:39;34.05;;;6.47;;
21786;SDS011;11055;50.870;4.316;2023-01-05T06:12:05;36.47;;;6.43;;
21786;SDS011;11055;50.870;4.316;2023-01-05T06:14:31;41.58;;;5.97;;
21786;SDS011;11055;50.870;4.316;2023-01-05T06:16:57;35.95;;;6.85;;
21786;SDS011;11055;50.870;4.316;2023-01-05T06:19:22;37.92;;;6.78;;
21786;SDS011;11055;50.870;4.316;2023-01-05T06:21:48;34.97;;;6.40;;
21786;SDS011;11055;50.870;4.316;2023-01-05T06:24:14;43.97;;;6.50;;
21786;SDS011;11055;50.870;4.316;2023-01-05T06:26:39;33.67;;;6.40;;
21786;SDS011;11055;50.870;4.316;2023-01-05T06:29:05;36.53;;;5.93;;
21786;SDS011;11055;50.870;4.316;2023-01-05T06:31:31;29.88;;;6.05;;
21786;SDS011;11055;50.870;4.316;2023-01-05T06:33:56;39.90;;;5.68;;
21786;SDS011;11055;50.870;4.316;2023-01-05T06:36:22;34.80;;;5.70;;
21786;SDS011;11055;50.870;4.316;2023-01-05T06:38:48;40.20;;;7.35;;
21786;SDS011;11055;50.870;4.316;2023-01-05T06:41:13;28.13;;;5.85;;
21786;SDS011;11055;50.870;4.316;2023-01-05T06:43:39;37.13;;;6.40;;
21786;SDS011;11055;50.870;4.316;2023-01-05T06:46:05;37.28;;;6.75;;
21786;SDS011;11055;50.870;4.316;2023-01-05T06:48:30;32.30;;;5.57;;
21786;SDS011;11055;50.870;4.316;2023-01-05T06:50:56;36.88;;;6.10;;
21786;SDS011;11055;50.870;4.316;2023-01-05T06:53:21;31.42;;;5.35;;
21786;SDS011;11055;50.870;4.316;2023-01-05T06:55:47;32.10;;;4.90;;
21786;SDS011;11055;50.870;4.316;2023-01-05T06:58:13;31.77;;;5.47;;
21786;SDS011;11055;50.870;4.316;2023-01-05T07:00:38;32.35;;;5.53;;
21786;SDS011;11055;50.870;4.316;2023-01-05T07:03:05;29.60;;;5.20;;
21786;SDS011;11055;50.870;4.316;2023-01-05T07:05:31;38.90;;;12.55;;
21786;SDS011;11055;50.870;4.316;2023-01-05T07:07:57;32.88;;;6.20;;
21786;SDS011;11055;50.870;4.316;2023-01-05T07:10:23;29.95;;;5.43;;
21786;SDS011;11055;50.870;4.316;2023-01-05T07:12:48;32.50;;;6.03;;
21786;SDS011;11055;50.870;4.316;2023-01-05T07:15:14;35.17;;;5.90;;
21786;SDS011;11055;50.870;4.316;2023-01-05T07:17:40;29.23;;;6.30;;
21786;SDS011;11055;50.870;4.316;2023-01-05T07:20:06;34.47;;;5.95;;
21786;SDS011;11055;50.870;4.316;2023-01-05T07:22:32;29.58;;;5.75;;
21786;SDS011;11055;50.870;4.316;2023-01-05T07:24:58;32.25;;;6.15;;
21786;SDS011;11055;50.870;4.316;2023-01-05T07:27:24;31.60;;;5.15;;
21786;SDS011;11055;50.870;4.316;2023-01-05T07:29:50;28.75;;;5.35;;
21786;SDS011;11055;50.870;4.316;2023-01-05T07:32:15;30.15;;;5.93;;
21786;SDS011;11055;50.870;4.316;2023-01-05T07:34:41;29.73;;;6.10;;
21786;SDS011;11055;50.870;4.316;2023-01-05T07:37:06;31.45;;;5.53;;
21786;SDS011;11055;50.870;4.316;2023-01-05T07:39:32;38.90;;;6.05;;
21786;SDS011;11055;50.870;4.316;2023-01-05T07:41:58;30.88;;;5.57;;
21786;SDS011;11055;50.870;4.316;2023-01-05T07:44:23;34.55;;;5.57;;
21786;SDS011;11055;50.870;4.316;2023-01-05T07:46:49;29.17;;;5.38;;
21786;SDS011;11055;50.870;4.316;2023-01-05T07:49:15;29.13;;;5.57;;
21786;SDS011;11055;50.870;4.316;2023-01-05T07:51:40;27.67;;;5.13;;
21786;SDS011;11055;50.870;4.316;2023-01-05T07:54:06;34.60;;;8.25;;
21786;SDS011;11055;50.870;4.316;2023-01-05T07:56:32;24.65;;;5.72;;
21786;SDS011;11055;50.870;4.316;2023-01-05T07:58:58;30.77;;;5.88;;
21786;SDS011;11055;50.870;4.316;2023-01-05T08:01:24;29.73;;;5.28;;
21786;SDS011;11055;50.870;4.316;2023-01-05T08:03:50;31.77;;;5.65;;
21786;SDS011;11055;50.870;4.316;2023-01-05T08:06:16;30.10;;;6.53;;
21786;SDS011;11055;50.870;4.316;2023-01-05T08:08:44;34.80;;;6.03;;
21786;SDS011;11055;50.870;4.316;2023-01-05T08:11:10;30.15;;;5.30;;
21786;SDS011;11055;50.870;4.316;2023-01-05T08:13:39;37.03;;;5.80;;
21786;SDS011;11055;50.870;4.316;2023-01-05T08:16:23;28.25;;;5.30;;
21786;SDS011;11055;50.870;4.316;2023-01-05T08:18:50;31.67;;;6.22;;
21786;SDS011;11055;50.870;4.316;2023-01-05T08:21:15;32.38;;;5.70;;
21786;SDS011;11055;50.870;4.316;2023-01-05T08:23:41;36.28;;;6.35;;
21786;SDS011;11055;50.870;4.316;2023-01-05T08:26:08;37.30;;;6.70;;
21786;SDS011;11055;50.870;4.316;2023-01-05T08:28:37;34.72;;;5.50;;
21786;SDS011;11055;50.870;4.316;2023-01-05T08:31:04;31.85;;;5.82;;
21786;SDS011;11055;50.870;4.316;2023-01-05T08:33:44;33.60;;;6.10;;
21786;SDS011;11055;50.870;4.316;2023-01-05T08:36:14;30.00;;;6.35;;
21786;SDS011;11055;50.870;4.316;2023-01-05T08:38:43;28.73;;;5.63;;
21786;SDS011;11055;50.870;4.316;2023-01-05T08:41:14;40.30;;;6.20;;
21786;SDS011;11055;50.870;4.316;2023-01-05T08:43:47;28.50;;;5.78;;
21786;SDS011;11055;50.870;4.316;2023-01-05T08:46:17;37.55;;;6.72;;
21786;SDS011;11055;50.870;4.316;2023-01-05T08:48:49;38.10;;;7.05;;
21786;SDS011;11055;50.870;4.316;2023-01-05T08:51:16;38.83;;;6.70;;
21786;SDS011;11055;50.870;4.316;2023-01-05T08:53:43;33.20;;;5.80;;
21786;SDS011;11055;50.870;4.316;2023-01-05T08:56:09;28.80;;;5.25;;
21786;SDS011;11055;50.870;4.316;2023-01-05T08:58:38;38.90;;;6.13;;
21786;SDS011;11055;50.870;4.316;2023-01-05T09:01:05;35.05;;;7.43;;
21786;SDS011;11055;50.870;4.316;2023-01-05T09:03:41;43.00;;;11.07;;
21786;SDS011;11055;50.870;4.316;2023-01-05T09:06:07;28.85;;;5.90;;
21786;SDS011;11055;50.870;4.316;2023-01-05T09:08:36;36.55;;;6.90;;
21786;SDS011;11055;50.870;4.316;2023-01-05T09:13:49;31.83;;;5.95;;
21786;SDS011;11055;50.870;4.316;2023-01-05T09:16:17;36.78;;;5.53;;
21786;SDS011;11055;50.870;4.316;2023-01-05T09:18:45;34.13;;;6.97;;
21786;SDS011;11055;50.870;4.316;2023-01-05T09:21:11;36.42;;;5.45;;
21786;SDS011;11055;50.870;4.316;2023-01-05T09:23:37;37.22;;;5.82;;
21786;SDS011;11055;50.870;4.316;2023-01-05T09:26:08;35.90;;;6.03;;
21786;SDS011;11055;50.870;4.316;2023-01-05T09:28:37;35.83;;;5.90;;
21786;SDS011;11055;50.870;4.316;2023-01-05T09:33:33;35.47;;;7.18;;
21786;SDS011;11055;50.870;4.316;2023-01-05T09:35:58;35.25;;;5.43;;
21786;SDS011;11055;50.870;4.316;2023-01-05T09:38:24;36.63;;;6.03;;
21786;SDS011;11055;50.870;4.316;2023-01-05T09:40:50;28.42;;;5.63;;
21786;SDS011;11055;50.870;4.316;2023-01-05T09:43:24;32.97;;;5.03;;
21786;SDS011;11055;50.870;4.316;2023-01-05T09:45:57;33.83;;;6.45;;
21786;SDS011;11055;50.870;4.316;2023-01-05T09:48:23;34.10;;;5.82;;
21786;SDS011;11055;50.870;4.316;2023-01-05T09:50:50;32.05;;;6.38;;
21786;SDS011;11055;50.870;4.316;2023-01-05T09:53:18;28.70;;;5.57;;
21786;SDS011;11055;50.870;4.316;2023-01-05T09:55:50;35.53;;;6.40;;
21786;SDS011;11055;50.870;4.316;2023-01-05T09:58:18;32.92;;;5.47;;
21786;SDS011;11055;50.870;4.316;2023-01-05T10:01:11;29.33;;;5.45;;
21786;SDS011;11055;50.870;4.316;2023-01-05T10:03:43;27.65;;;5.75;;
21786;SDS011;11055;50.870;4.316;2023-01-05T10:06:18;23.08;;;5.68;;
21786;SDS011;11055;50.870;4.316;2023-01-05T10:08:49;32.78;;;6.97;;
21786;SDS011;11055;50.870;4.316;2023-01-05T10:11:50;32.45;;;5.43;;
21786;SDS011;11055;50.870;4.316;2023-01-05T10:14:46;30.40;;;5.90;;
21786;SDS011;11055;50.870;4.316;2023-01-05T10:17:18;31.55;;;5.60;;
21786;SDS011;11055;50.870;4.316;2023-01-05T10:19:46;25.35;;;5.97;;
21786;SDS011;11055;50.870;4.316;2023-01-05T10:23:14;31.48;;;6.00;;
21786;SDS011;11055;50.870;4.316;2023-01-05T10:25:41;33.53;;;5.68;;
21786;SDS011;11055;50.870;4.316;2023-01-05T10:28:16;31.02;;;5.20;;
21786;SDS011;11055;50.870;4.316;2023-01-05T10:30:57;24.80;;;5.95;;
21786;SDS011;11055;50.870;4.316;2023-01-05T10:46:22;33.65;;;6.20;;
21786;SDS011;11055;50.870;4.316;2023-01-05T10:48:48;25.15;;;4.80;;
21786;SDS011;11055;50.870;4.316;2023-01-05T10:51:13;36.95;;;6.50;;
21786;SDS011;11055;50.870;4.316;2023-01-05T10:53:40;27.48;;;5.60;;
21786;SDS011;11055;50.870;4.316;2023-01-05T10:56:14;29.92;;;5.93;;
21786;SDS011;11055;50.870;4.316;2023-01-05T10:58:47;24.90;;;4.53;;
21786;SDS011;11055;50.870;4.316;2023-01-05T11:01:16;38.65;;;5.75;;
21786;SDS011;11055;50.870;4.316;2023-01-05T11:06:33;28.17;;;5.32;;
21786;SDS011;11055;50.870;4.316;2023-01-05T11:09:20;34.88;;;5.97;;
21786;SDS011;11055;50.870;4.316;2023-01-05T11:12:13;32.08;;;5.38;;
21786;SDS011;11055;50.870;4.316;2023-01-05T11:14:41;34.45;;;5.80;;
21786;SDS011;11055;50.870;4.316;2023-01-05T11:17:13;26.48;;;4.78;;
21786;SDS011;11055;50.870;4.316;2023-01-05T11:19:46;28.27;;;6.38;;
21786;SDS011;11055;50.870;4.316;2023-01-05T11:22:29;31.73;;;5.43;;
21786;SDS011;11055;50.870;4.316;2023-01-05T11:28:02;34.55;;;5.90;;
21786;SDS011;11055;50.870;4.316;2023-01-05T11:30:29;27.83;;;6.05;;
21786;SDS011;11055;50.870;4.316;2023-01-05T11:32:55;29.38;;;6.65;;
21786;SDS011;11055;50.870;4.316;2023-01-05T11:35:30;31.65;;;5.80;;
21786;SDS011;11055;50.870;4.316;2023-01-05T11:37:59;31.10;;;5.78;;
21786;SDS011;11055;50.870;4.316;2023-01-05T11:40:27;30.58;;;5.95;;
21786;SDS011;11055;50.870;4.316;2023-01-05T11:42:54;35.95;;;6.40;;
21786;SDS011;11055;50.870;4.316;2023-01-05T11:45:21;26.00;;;5.30;;
21786;SDS011;11055;50.870;4.316;2023-01-05T11:47:51;27.95;;;6.60;;
21786;SDS011;11055;50.870;4.316;2023-01-05T11:50:25;37.75;;;6.03;;
21786;SDS011;11055;50.870;4.316;2023-01-05T11:53:09;26.65;;;5.25;;
21786;SDS011;11055;50.870;4.316;2023-01-05T11:55:58;32.63;;;7.07;;
21786;SDS011;11055;50.870;4.316;2023-01-05T11:58:33;30.63;;;5.75;;
21786;SDS011;11055;50.870;4.316;2023-01-05T12:06:25;34.78;;;6.03;;
21786;SDS011;11055;50.870;4.316;2023-01-05T12:14:48;34.22;;;6.43;;
21786;SDS011;11055;50.870;4.316;2023-01-05T12:17:35;31.73;;;6.07;;
21786;SDS011;11055;50.870;4.316;2023-01-05T12:20:32;30.20;;;5.93;;
21786;SDS011;11055;50.870;4.316;2023-01-05T12:26:03;28.15;;;6.07;;
21786;SDS011;11055;50.870;4.316;2023-01-05T12:28:45;30.15;;;6.70;;
21786;SDS011;11055;50.870;4.316;2023-01-05T12:45:36;30.90;;;7.47;;
21786;SDS011;11055;50.870;4.316;2023-01-05T12:51:01;45.83;;;14.05;;
21786;SDS011;11055;50.870;4.316;2023-01-05T12:53:39;36.38;;;7.63;;
21786;SDS011;11055;50.870;4.316;2023-01-05T13:01:58;32.67;;;6.15;;
21786;SDS011;11055;50.870;4.316;2023-01-05T13:04:39;37.05;;;6.78;;
21786;SDS011;11055;50.870;4.316;2023-01-05T13:07:54;37.15;;;7.65;;
21786;SDS011;11055;50.870;4.316;2023-01-05T13:10:05;37.72;;;7.18;;
21786;SDS011;11055;50.870;4.316;2023-01-05T13:12:41;37.63;;;6.90;;
21786;SDS011;11055;50.870;4.316;2023-01-05T13:17:44;37.10;;;6.57;;
21786;SDS011;11055;50.870;4.316;2023-01-05T13:22:48;35.92;;;7.85;;
21786;SDS011;11055;50.870;4.316;2023-01-05T13:25:21;24.97;;;6.03;;
21786;SDS011;11055;50.870;4.316;2023-01-05T13:27:50;25.58;;;4.97;;
21786;SDS011;11055;50.870;4.316;2023-01-05T13:30:20;28.70;;;5.82;;
21786;SDS011;11055;50.870;4.316;2023-01-05T13:46:26;15.00;;;5.28;;
21786;SDS011;11055;50.870;4.316;2023-01-05T13:55:14;18.15;;;5.35;;
21786;SDS011;11055;50.870;4.316;2023-01-05T13:57:44;12.52;;;4.55;;
21786;SDS011;11055;50.870;4.316;2023-01-05T14:02:43;17.42;;;8.20;;
21786;SDS011;11055;50.870;4.316;2023-01-05T14:05:15;15.20;;;7.68;;
21786;SDS011;11055;50.870;4.316;2023-01-05T14:07:54;13.98;;;4.82;;
21786;SDS011;11055;50.870;4.316;2023-01-05T14:10:22;8.32;;;3.70;;
21786;SDS011;11055;50.870;4.316;2023-01-05T14:12:53;12.68;;;4.70;;
21786;SDS011;11055;50.870;4.316;2023-01-05T14:15:31;14.10;;;3.95;;
21786;SDS011;11055;50.870;4.316;2023-01-05T14:18:08;13.82;;;4.43;;
21786;SDS011;11055;50.870;4.316;2023-01-05T14:25:55;10.98;;;4.07;;
21786;SDS011;11055;50.870;4.316;2023-01-05T14:33:44;7.78;;;3.40;;
21786;SDS011;11055;50.870;4.316;2023-01-05T14:38:55;10.80;;;4.13;;
21786;SDS011;11055;50.870;4.316;2023-01-05T14:41:26;12.35;;;5.10;;
21786;SDS011;11055;50.870;4.316;2023-01-05T14:43:57;11.43;;;4.32;;
21786;SDS011;11055;50.870;4.316;2023-01-05T14:46:44;14.32;;;8.32;;
21786;SDS011;11055;50.870;4.316;2023-01-05T14:49:32;13.60;;;5.57;;
21786;SDS011;11055;50.870;4.316;2023-01-05T14:51:59;10.10;;;4.82;;
21786;SDS011;11055;50.870;4.316;2023-01-05T14:54:33;9.43;;;5.15;;
21786;SDS011;11055;50.870;4.316;2023-01-05T15:00:12;8.85;;;4.63;;
21786;SDS011;11055;50.870;4.316;2023-01-05T15:05:23;14.50;;;5.60;;
21786;SDS011;11055;50.870;4.316;2023-01-05T15:07:55;16.33;;;8.43;;
21786;SDS011;11055;50.870;4.316;2023-01-05T15:18:25;6.40;;;3.95;;
21786;SDS011;11055;50.870;4.316;2023-01-05T15:31:34;11.02;;;5.57;;
21786;SDS011;11055;50.870;4.316;2023-01-05T15:36:52;8.30;;;5.75;;
21786;SDS011;11055;50.870;4.316;2023-01-05T15:42:38;10.93;;;5.63;;
21786;SDS011;11055;50.870;4.316;2023-01-05T15:45:07;9.48;;;6.07;;
21786;SDS011;11055;50.870;4.316;2023-01-05T15:47:55;11.43;;;6.15;;
21786;SDS011;11055;50.870;4.316;2023-01-05T15:50:23;9.98;;;6.10;;
21786;SDS011;11055;50.870;4.316;2023-01-05T15:52:55;9.65;;;6.20;;
21786;SDS011;11055;50.870;4.316;2023-01-05T15:55:23;11.18;;;6.28;;
21786;SDS011;11055;50.870;4.316;2023-01-05T15:57:59;10.77;;;7.15;;
21786;SDS011;11055;50.870;4.316;2023-01-05T16:00:29;9.77;;;7.97;;
21786;SDS011;11055;50.870;4.316;2023-01-05T16:02:59;10.73;;;9.57;;
21786;SDS011;11055;50.870;4.316;2023-01-05T16:05:27;13.02;;;10.95;;
21786;SDS011;11055;50.870;4.316;2023-01-05T16:08:01;14.52;;;12.02;;
21786;SDS011;11055;50.870;4.316;2023-01-05T16:13:22;29.95;;;24.90;;
21786;SDS011;11055;50.870;4.316;2023-01-05T16:16:04;15.18;;;13.00;;
21786;SDS011;11055;50.870;4.316;2023-01-05T16:18:59;12.88;;;11.20;;
21786;SDS011;11055;50.870;4.316;2023-01-05T16:21:39;10.65;;;9.52;;
21786;SDS011;11055;50.870;4.316;2023-01-05T16:24:41;8.77;;;7.97;;
21786;SDS011;11055;50.870;4.316;2023-01-05T16:27:13;10.75;;;8.82;;
21786;SDS011;11055;50.870;4.316;2023-01-05T16:29:41;7.82;;;7.13;;
21786;SDS011;11055;50.870;4.316;2023-01-05T16:40:35;8.23;;;7.53;;
21786;SDS011;11055;50.870;4.316;2023-01-05T16:43:17;8.85;;;7.95;;
21786;SDS011;11055;50.870;4.316;2023-01-05T16:51:11;9.35;;;8.05;;
21786;SDS011;11055;50.870;4.316;2023-01-05T16:54:25;7.82;;;7.03;;
21786;SDS011;11055;50.870;4.316;2023-01-05T16:59:02;9.52;;;7.38;;
21786;SDS011;11055;50.870;4.316;2023-01-05T17:01:48;7.93;;;6.72;;
21786;SDS011;11055;50.870;4.316;2023-01-05T17:04:14;7.38;;;6.65;;
21786;SDS011;11055;50.870;4.316;2023-01-05T17:06:45;8.40;;;7.43;;
21786;SDS011;11055;50.870;4.316;2023-01-05T17:09:18;7.68;;;6.90;;
21786;SDS011;11055;50.870;4.316;2023-01-05T17:11:49;7.40;;;6.70;;
21786;SDS011;11055;50.870;4.316;2023-01-05T17:14:15;5.82;;;5.32;;
21786;SDS011;11055;50.870;4.316;2023-01-05T17:16:42;6.20;;;5.60;;
21786;SDS011;11055;50.870;4.316;2023-01-05T17:19:12;6.40;;;5.80;;
21786;SDS011;11055;50.870;4.316;2023-01-05T17:21:40;6.70;;;6.10;;
21786;SDS011;11055;50.870;4.316;2023-01-05T17:24:08;7.07;;;6.38;;
21786;SDS011;11055;50.870;4.316;2023-01-05T17:26:37;7.75;;;6.60;;
21786;SDS011;11055;50.870;4.316;2023-01-05T17:29:05;18.83;;;14.15;;
21786;SDS011;11055;50.870;4.316;2023-01-05T17:31:32;8.05;;;7.25;;
21786;SDS011;11055;50.870;4.316;2023-01-05T17:33:59;7.97;;;7.25;;
21786;SDS011;11055;50.870;4.316;2023-01-05T17:36:29;7.97;;;6.88;;
21786;SDS011;11055;50.870;4.316;2023-01-05T17:38:57;7.82;;;7.03;;
21786;SDS011;11055;50.870;4.316;2023-01-05T17:41:24;9.13;;;8.23;;
21786;SDS011;11055;50.870;4.316;2023-01-05T17:43:49;10.90;;;9.13;;
21786;SDS011;11055;50.870;4.316;2023-01-05T17:46:16;11.75;;;9.88;;
21786;SDS011;11055;50.870;4.316;2023-01-05T17:48:43;9.93;;;8.60;;
21786;SDS011;11055;50.870;4.316;2023-01-05T17:51:09;9.95;;;8.93;;